Time;durP1;ratioP1;P1;durP2;ratioP2;P2;SDS_P1;SDS_P2;PMS_P1;PMS_P2;Temp;Humidity;BMP_temperature;BMP_pressure;BME280_temperature;BME280_humidity;BME280_pressure;Samples;Min_cycle;Max_cycle;Signal;HPM_P1;HPM_P2
2023/01/04 00:00:30;;;;;;;10.10;2.50;;;6.60;99.90;;;;;;5038632;28;20030;-70
2023/01/04 00:02:56;;;;;;;7.45;2.67;;;6.60;99.90;;;;;;5039791;28;20081;-73
2023/01/04 00:05:22;;;;;;;12.63;3.05;;;6.60;99.90;;;;;;5040839;28;20035;-72
2023/01/04 00:07:47;;;;;;;8.70;3.08;;;6.60;99.90;;;;;;5041431;28;20032;-70
2023/01/04 00:10:13;;;;;;;13.07;2.58;;;6.60;99.90;;;;;;5040477;28;20057;-71
2023/01/04 00:12:38;;;;;;;5.80;2.35;;;6.60;99.90;;;;;;5041042;28;20022;-73
2023/01/04 00:15:04;;;;;;;6.20;2.35;;;6.60;99.90;;;;;;5040095;28;20707;-70
2023/01/04 00:17:30;;;;;;;8.45;2.75;;;6.60;99.90;;;;;;5040250;28;20620;-72
2023/01/04 00:19:55;;;;;;;6.93;2.78;;;6.70;99.90;;;;;;5022849;28;20033;-72
2023/01/04 00:22:21;;;;;;;11.23;2.25;;;6.70;99.90;;;;;;5041792;28;20405;-69
2023/01/04 00:24:46;;;;;;;7.07;2.42;;;6.60;99.90;;;;;;5044476;28;20052;-72
2023/01/04 00:27:12;;;;;;;11.23;2.53;;;6.70;99.90;;;;;;5046146;28;20025;-71
2023/01/04 00:29:38;;;;;;;7.78;2.42;;;6.80;99.90;;;;;;5044486;28;20029;-70
2023/01/04 00:32:03;;;;;;;9.23;2.60;;;6.80;99.90;;;;;;5045934;28;20055;-69
2023/01/04 00:34:29;;;;;;;5.55;2.33;;;6.80;99.90;;;;;;5032569;28;20710;-71
2023/01/04 00:36:55;;;;;;;4.32;1.63;;;6.80;99.90;;;;;;5031071;28;20402;-71
2023/01/04 00:39:20;;;;;;;10.10;2.13;;;6.90;99.90;;;;;;5032441;28;20049;-71
2023/01/04 00:41:51;;;;;;;13.50;2.97;;;6.90;99.90;;;;;;5033378;28;20421;-72
2023/01/04 00:44:17;;;;;;;6.43;2.35;;;6.90;99.90;;;;;;5033421;28;20044;-72
2023/01/04 00:46:43;;;;;;;9.23;2.40;;;6.90;99.90;;;;;;5048826;28;20075;-70
2023/01/04 00:49:10;;;;;;;9.98;2.30;;;6.90;99.90;;;;;;5047943;28;20022;-70
2023/01/04 00:51:38;;;;;;;8.88;2.05;;;6.90;99.90;;;;;;5048132;28;20018;-71
2023/01/04 00:54:06;;;;;;;5.72;1.83;;;6.90;99.90;;;;;;5050066;28;21142;-69
2023/01/04 00:56:33;;;;;;;10.65;1.85;;;6.90;99.90;;;;;;5032767;28;20037;-71
2023/01/04 00:59:01;;;;;;;4.20;1.75;;;6.90;99.90;;;;;;5033085;28;20064;-72
2023/01/04 01:01:28;;;;;;;3.85;1.33;;;6.90;99.90;;;;;;5031555;28;20033;-72
2023/01/04 01:03:56;;;;;;;7.25;1.42;;;6.90;99.90;;;;;;5033037;28;20032;-69
2023/01/04 01:06:23;;;;;;;9.68;1.88;;;6.90;99.90;;;;;;5049809;28;20085;-71
2023/01/04 01:08:50;;;;;;;8.77;2.30;;;6.90;99.90;;;;;;5030805;28;20116;-72
2023/01/04 01:11:16;;;;;;;4.43;1.85;;;6.90;99.90;;;;;;5030974;28;20103;-73
2023/01/04 01:13:42;;;;;;;10.40;2.40;;;6.90;99.90;;;;;;5048476;28;20025;-70
2023/01/04 01:16:13;;;;;;;9.65;1.63;;;6.90;99.90;;;;;;5045153;28;20077;-70
2023/01/04 01:18:41;;;;;;;8.85;1.65;;;6.90;99.90;;;;;;5039456;28;20017;-72
2023/01/04 01:21:12;;;;;;;6.93;2.15;;;6.90;99.90;;;;;;5040857;28;20022;-69
2023/01/04 01:23:37;;;;;;;6.13;1.58;;;6.90;99.90;;;;;;5032828;28;20081;-70
2023/01/04 01:26:06;;;;;;;7.57;1.58;;;6.90;99.90;;;;;;5046678;28;20022;-68
2023/01/04 01:28:34;;;;;;;6.65;1.33;;;6.90;99.90;;;;;;5049312;28;20040;-68
2023/01/04 01:31:08;;;;;;;9.75;1.70;;;6.90;99.90;;;;;;5040776;28;20039;-70
2023/01/04 01:33:36;;;;;;;8.27;2.00;;;6.90;99.90;;;;;;5045409;28;20025;-68
2023/01/04 01:36:03;;;;;;;10.48;1.88;;;6.90;99.90;;;;;;5044127;28;20051;-70
2023/01/04 01:38:28;;;;;;;3.95;1.60;;;6.90;99.90;;;;;;5046443;28;20029;-70
2023/01/04 01:40:54;;;;;;;5.28;2.00;;;6.90;99.90;;;;;;5041234;28;20025;-72
2023/01/04 01:43:23;;;;;;;4.80;1.77;;;7.00;99.90;;;;;;5048004;28;20068;-71
2023/01/04 01:45:56;;;;;;;4.65;1.77;;;7.00;99.90;;;;;;5030503;28;20191;-71
2023/01/04 01:48:28;;;;;;;3.30;1.65;;;7.10;99.90;;;;;;5031308;28;20029;-71
2023/01/04 01:50:58;;;;;;;7.90;2.00;;;7.10;99.90;;;;;;5047239;28;20034;-71
2023/01/04 01:53:25;;;;;;;6.88;1.70;;;7.10;99.90;;;;;;5032235;28;20025;-73
2023/01/04 01:55:52;;;;;;;5.18;1.85;;;7.20;99.90;;;;;;5032469;28;20042;-69
2023/01/04 01:58:24;;;;;;;5.22;1.40;;;7.20;99.90;;;;;;5046077;28;20025;-73
2023/01/04 02:00:50;;;;;;;6.50;2.00;;;7.20;99.90;;;;;;5030644;28;20116;-71
2023/01/04 02:03:19;;;;;;;5.85;2.00;;;7.20;99.90;;;;;;5046418;28;20425;-70
2023/01/04 02:05:51;;;;;;;8.38;2.42;;;7.20;99.90;;;;;;5030928;28;20033;-71
2023/01/04 02:08:19;;;;;;;8.13;2.13;;;7.30;99.90;;;;;;5048370;28;20032;-70
2023/01/04 02:10:44;;;;;;;2.17;1.17;;;7.30;99.90;;;;;;5044701;28;20045;-72
2023/01/04 02:13:13;;;;;;;16.27;2.55;;;7.30;99.90;;;;;;5045560;28;20033;-71
2023/01/04 02:16:07;;;;;;;9.60;2.03;;;7.30;99.90;;;;;;5045670;28;20044;-71
2023/01/04 02:18:40;;;;;;;8.88;2.28;;;7.40;99.90;;;;;;5044048;28;20537;-71
2023/01/04 02:21:25;;;;;;;7.35;1.77;;;7.40;99.90;;;;;;5029152;28;20051;-70
2023/01/04 02:24:06;;;;;;;10.18;2.05;;;7.40;99.90;;;;;;5038604;28;20038;-73
2023/01/04 02:27:13;;;;;;;9.95;2.03;;;7.40;99.90;;;;;;5037014;28;20045;-71
2023/01/04 02:29:54;;;;;;;9.63;1.80;;;7.40;99.90;;;;;;5018605;28;20518;-71
2023/01/04 02:32:49;;;;;;;2.42;1.13;;;7.40;99.90;;;;;;5018990;28;20109;-69
2023/01/04 02:35:31;;;;;;;5.57;2.38;;;7.40;99.90;;;;;;5038158;28;20041;-70
2023/01/04 02:38:50;;;;;;;3.25;1.77;;;7.30;99.90;;;;;;5039253;28;20030;-70
2023/01/04 02:41:20;;;;;;;6.60;1.55;;;7.30;99.90;;;;;;5017667;28;20538;-73
2023/01/04 02:47:08;;;;;;;9.75;2.25;;;7.40;99.90;;;;;;5042332;28;20043;-68
2023/01/04 02:52:20;;;;;;;10.80;2.53;;;7.40;99.90;;;;;;5042115;28;20029;-68
2023/01/04 02:54:49;;;;;;;9.63;2.20;;;7.30;99.90;;;;;;5018844;28;20036;-70
2023/01/04 02:57:41;;;;;;;11.90;2.40;;;7.30;99.90;;;;;;5041933;28;20112;-70
2023/01/04 03:00:33;;;;;;;12.60;2.58;;;7.20;99.90;;;;;;5041949;28;20041;-68
2023/01/04 03:06:17;;;;;;;15.52;2.55;;;7.10;99.90;;;;;;5041903;28;20056;-71
2023/01/04 03:08:53;;;;;;;15.95;2.97;;;7.00;99.90;;;;;;5024336;28;20636;-71
2023/01/04 03:14:09;;;;;;;;;;;7.00;99.90;;;;;;5041822;28;20071;-71
2023/01/04 03:16:36;;;;;;;5.63;2.63;;;6.90;99.90;;;;;;5041190;28;19982;-72
2023/01/04 03:19:08;;;;;;;7.68;2.58;;;7.00;99.90;;;;;;5041813;28;20026;-71
2023/01/04 03:21:36;;;;;;;8.25;2.42;;;7.00;99.90;;;;;;5024491;28;20037;-70
2023/01/04 03:36:02;;;;;;;6.47;2.72;;;6.90;99.90;;;;;;5042623;28;20052;-71
2023/01/04 03:50:36;;;;;;;7.18;3.17;;;7.00;99.90;;;;;;5041066;28;20036;-71
2023/01/04 03:53:04;;;;;;;12.77;4.15;;;6.90;99.90;;;;;;5024444;28;20040;-73
2023/01/04 03:55:30;;;;;;;11.43;3.97;;;6.90;99.90;;;;;;5041568;28;20041;-75
2023/01/04 03:57:57;;;;;;;12.65;2.97;;;6.90;99.90;;;;;;5042248;28;20093;-74
2023/01/04 04:00:22;;;;;;;9.82;3.70;;;7.00;99.90;;;;;;5042371;28;20462;-71
2023/01/04 04:02:48;;;;;;;9.13;3.92;;;7.00;99.90;;;;;;5041891;28;20022;-70
2023/01/04 04:10:46;;;;;;;18.55;4.35;;;7.00;99.90;;;;;;5041450;28;20091;-71
2023/01/04 04:13:12;;;;;;;13.70;4.25;;;7.00;99.90;;;;;;5042642;28;20037;-73
2023/01/04 04:15:38;;;;;;;14.30;5.28;;;7.00;99.90;;;;;;5042092;28;20045;-71
2023/01/04 04:18:04;;;;;;;10.10;4.70;;;7.00;99.90;;;;;;5041945;28;20025;-72
2023/01/04 04:20:30;;;;;;;6.15;3.35;;;7.00;99.90;;;;;;5041226;28;20852;-70
2023/01/04 04:22:55;;;;;;;12.82;4.03;;;7.00;99.90;;;;;;5053565;28;20053;-70
2023/01/04 04:25:21;;;;;;;14.18;5.32;;;7.00;99.90;;;;;;5061689;28;20040;-71
2023/01/04 04:27:46;;;;;;;8.95;4.82;;;7.00;99.90;;;;;;5061418;28;20028;-71
2023/01/04 04:30:13;;;;;;;12.45;4.85;;;7.00;99.90;;;;;;5061843;28;20458;-70
2023/01/04 04:32:38;;;;;;;13.57;4.70;;;7.00;99.90;;;;;;5061530;28;20052;-73
2023/01/04 04:35:04;;;;;;;11.98;5.05;;;7.00;99.90;;;;;;5061521;28;20114;-71
2023/01/04 04:37:31;;;;;;;12.93;4.40;;;7.10;99.90;;;;;;5061482;28;20484;-69
2023/01/04 04:39:57;;;;;;;13.57;4.20;;;7.10;99.90;;;;;;5043183;28;20029;-72
2023/01/04 04:42:23;;;;;;;13.50;5.82;;;7.10;99.90;;;;;;5043389;28;20039;-74
2023/01/04 04:44:48;;;;;;;14.40;5.55;;;7.10;99.90;;;;;;5061506;28;20041;-74
2023/01/04 04:47:14;;;;;;;11.93;3.78;;;7.10;99.90;;;;;;5061393;28;20033;-71
2023/01/04 04:49:40;;;;;;;18.00;5.35;;;7.10;99.90;;;;;;5061037;28;20025;-72
2023/01/04 04:52:05;;;;;;;12.30;5.03;;;7.10;99.90;;;;;;5043483;28;20032;-70
2023/01/04 04:54:31;;;;;;;10.10;4.38;;;7.20;99.90;;;;;;5060608;28;20021;-72
2023/01/04 04:56:56;;;;;;;10.65;5.00;;;7.20;99.90;;;;;;5060828;28;20094;-70
2023/01/04 04:59:22;;;;;;;10.40;4.82;;;7.20;99.90;;;;;;5043054;28;20021;-70
2023/01/04 05:01:47;;;;;;;8.55;4.57;;;7.20;99.90;;;;;;5060433;28;20021;-73
2023/01/04 05:04:15;;;;;;;14.35;5.22;;;7.20;99.90;;;;;;5061193;28;20021;-71
2023/01/04 05:06:51;;;;;;;13.65;5.25;;;7.30;99.90;;;;;;5043272;28;20028;-72
2023/01/04 05:09:17;;;;;;;12.65;6.78;;;7.30;99.90;;;;;;5060088;28;20052;-70
2023/01/04 05:14:27;;;;;;;15.77;6.78;;;7.30;99.90;;;;;;5054500;28;20516;-71
2023/01/04 05:16:53;;;;;;;12.70;5.38;;;7.30;99.90;;;;;;5060426;28;20037;-69
2023/01/04 05:19:18;;;;;;;19.77;7.32;;;7.40;99.90;;;;;;5060795;28;20047;-71
2023/01/04 05:21:44;;;;;;;19.83;7.47;;;7.40;99.90;;;;;;5060727;28;20053;-69
2023/01/04 05:24:11;;;;;;;13.02;5.72;;;7.40;99.90;;;;;;5060194;28;20033;-70
2023/01/04 05:26:36;;;;;;;16.65;7.78;;;7.50;99.90;;;;;;5060124;28;20027;-68
2023/01/04 05:29:02;;;;;;;21.35;7.68;;;7.50;99.90;;;;;;5060835;28;20048;-68
2023/01/04 05:31:28;;;;;;;13.00;7.55;;;7.50;99.90;;;;;;5059827;28;20021;-71
2023/01/04 05:33:54;;;;;;;17.38;7.88;;;7.50;99.90;;;;;;5041964;28;20029;-69
2023/01/04 05:36:19;;;;;;;11.95;5.88;;;7.50;99.90;;;;;;5060180;28;20033;-71
2023/01/04 05:38:45;;;;;;;14.23;6.70;;;7.60;99.90;;;;;;5060416;28;20462;-69
2023/01/04 05:43:56;;;;;;;17.45;8.45;;;7.70;99.90;;;;;;5060205;28;20036;-71
2023/01/04 05:46:21;;;;;;;30.80;9.68;;;7.70;99.90;;;;;;5059880;28;20017;-70
2023/01/04 05:48:47;;;;;;;26.10;10.00;;;7.70;99.90;;;;;;5060296;28;20021;-69
2023/01/04 05:51:12;;;;;;;29.23;11.07;;;7.70;99.90;;;;;;5060444;28;20091;-72
2023/01/04 05:53:38;;;;;;;20.70;9.98;;;7.80;99.90;;;;;;5060608;28;20055;-69
2023/01/04 05:56:04;;;;;;;21.63;10.05;;;7.80;99.90;;;;;;5060276;28;20045;-73
2023/01/04 05:58:29;;;;;;;19.92;10.27;;;7.90;99.90;;;;;;5060100;28;20052;-72
2023/01/04 06:00:58;;;;;;;32.03;11.73;;;7.90;99.90;;;;;;5060303;28;20036;-72
2023/01/04 06:03:23;;;;;;;22.30;11.20;;;8.00;99.90;;;;;;5059656;28;20024;-72
2023/01/04 06:05:50;;;;;;;19.50;8.70;;;8.00;99.90;;;;;;5041555;28;20022;-74
2023/01/04 06:08:16;;;;;;;17.88;9.38;;;8.00;99.90;;;;;;5042000;28;20029;-71
2023/01/04 06:10:41;;;;;;;24.23;9.57;;;8.10;99.90;;;;;;5060052;28;20045;-71
2023/01/04 06:13:07;;;;;;;19.58;10.93;;;8.20;99.90;;;;;;5061950;28;20439;-71
2023/01/04 06:15:32;;;;;;;15.80;8.80;;;8.20;99.90;;;;;;5046413;28;20497;-70
2023/01/04 06:17:58;;;;;;;27.40;11.50;;;8.30;99.90;;;;;;5064174;28;20511;-70
2023/01/04 06:20:24;;;;;;;18.55;10.15;;;8.30;99.90;;;;;;5063440;28;20031;-70
2023/01/04 06:22:49;;;;;;;24.35;11.95;;;8.30;99.90;;;;;;5045731;28;20049;-71
2023/01/04 06:25:16;;;;;;;19.35;10.10;;;8.40;99.90;;;;;;5063837;28;20021;-68
2023/01/04 06:27:41;;;;;;;22.75;11.27;;;8.40;99.90;;;;;;5063806;28;20043;-70
2023/01/04 06:30:07;;;;;;;23.17;11.32;;;8.40;99.90;;;;;;5062492;28;20041;-70
2023/01/04 06:32:33;;;;;;;22.83;10.95;;;8.50;99.90;;;;;;5064075;28;20044;-71
2023/01/04 06:34:59;;;;;;;19.75;10.13;;;8.50;99.90;;;;;;5046689;28;20037;-71
2023/01/04 06:37:24;;;;;;;24.27;13.02;;;8.50;99.90;;;;;;5063861;28;20052;-69
2023/01/04 06:39:50;;;;;;;21.85;11.15;;;8.50;99.90;;;;;;5064003;28;20033;-69
2023/01/04 06:44:59;;;;;;;23.92;12.07;;;8.60;99.90;;;;;;5064028;28;20036;-68
2023/01/04 06:47:25;;;;;;;28.02;12.40;;;8.60;99.90;;;;;;5064563;28;20029;-67
2023/01/04 06:49:51;;;;;;;24.85;13.05;;;8.70;99.90;;;;;;5063682;28;20027;-68
2023/01/04 06:52:17;;;;;;;23.77;12.90;;;8.70;99.90;;;;;;5063872;28;21415;-68
2023/01/04 06:54:42;;;;;;;22.95;11.90;;;8.70;99.90;;;;;;5045487;28;20093;-67
2023/01/04 06:57:08;;;;;;;24.02;13.00;;;8.70;99.90;;;;;;5061417;28;20056;-69
2023/01/04 06:59:34;;;;;;;24.85;11.10;;;8.70;99.90;;;;;;5063449;28;20025;-68
2023/01/04 07:01:59;;;;;;;22.15;12.00;;;8.80;99.90;;;;;;5061942;28;20414;-67
2023/01/04 07:04:25;;;;;;;17.52;9.30;;;8.80;99.90;;;;;;5063373;28;20084;-69
2023/01/04 07:06:50;;;;;;;18.88;10.02;;;8.80;99.90;;;;;;5062488;28;20081;-69
2023/01/04 07:09:16;;;;;;;20.25;10.82;;;8.80;99.90;;;;;;5062971;28;20033;-69
2023/01/04 07:11:42;;;;;;;18.33;9.52;;;8.90;99.90;;;;;;5059790;28;20051;-69
2023/01/04 07:14:08;;;;;;;19.10;10.25;;;8.90;99.90;;;;;;5063191;28;20545;-68
2023/01/04 07:16:33;;;;;;;17.67;9.70;;;8.80;99.90;;;;;;5064247;28;20502;-68
2023/01/04 07:18:59;;;;;;;16.20;9.45;;;9.00;99.90;;;;;;5063244;28;20024;-69
2023/01/04 07:21:25;;;;;;;23.67;9.93;;;9.00;99.90;;;;;;5063104;28;20028;-70
2023/01/04 07:23:51;;;;;;;18.90;9.07;;;9.00;99.90;;;;;;5052180;28;20096;-70
2023/01/04 07:26:16;;;;;;;12.50;6.82;;;9.00;99.90;;;;;;5045240;28;20103;-68
2023/01/04 07:31:26;;;;;;;19.35;8.05;;;9.00;99.90;;;;;;5051005;28;20044;-70
2023/01/04 07:33:52;;;;;;;13.45;6.15;;;9.00;99.90;;;;;;5052080;28;20029;-71
2023/01/04 07:36:17;;;;;;;32.15;7.80;;;9.10;99.90;;;;;;5058238;28;20053;-68
2023/01/04 07:38:43;;;;;;;14.50;7.65;;;9.10;99.90;;;;;;5051185;28;20028;-68
2023/01/04 07:41:09;;;;;;;12.07;7.47;;;9.10;99.90;;;;;;5054914;28;20081;-69
2023/01/04 07:43:35;;;;;;;13.05;7.05;;;9.10;99.90;;;;;;5061451;28;20048;-67
2023/01/04 07:46:00;;;;;;;10.23;5.38;;;9.10;99.90;;;;;;5056256;28;20030;-68
2023/01/04 07:48:28;;;;;;;8.07;5.30;;;9.20;99.90;;;;;;5053079;28;20037;-67
2023/01/04 07:50:54;;;;;;;8.35;4.82;;;9.20;99.90;;;;;;5052522;28;20029;-69
2023/01/04 07:53:19;;;;;;;10.57;6.03;;;9.20;99.90;;;;;;5052600;28;20367;-69
2023/01/04 07:55:45;;;;;;;13.52;4.60;;;9.40;99.90;;;;;;5039788;28;20052;-68
2023/01/04 07:58:11;;;;;;;5.82;3.65;;;9.30;99.90;;;;;;5060554;28;20056;-70
2023/01/04 08:00:36;;;;;;;9.85;4.85;;;9.30;99.90;;;;;;5060362;28;20160;-69
2023/01/04 08:03:02;;;;;;;7.15;4.53;;;9.30;99.90;;;;;;5060787;28;20070;-68
2023/01/04 08:05:31;;;;;;;9.90;4.90;;;9.30;99.90;;;;;;5062544;28;20051;-71
2023/01/04 08:07:56;;;;;;;7.97;5.22;;;9.30;99.90;;;;;;5060930;28;20017;-70
2023/01/04 08:10:22;;;;;;;9.18;4.38;;;9.30;99.90;;;;;;5061351;28;20033;-69
2023/01/04 08:12:47;;;;;;;8.45;4.95;;;9.30;99.90;;;;;;5044420;28;20029;-69
2023/01/04 08:15:14;;;;;;;6.93;3.85;;;9.40;99.90;;;;;;5053475;28;20114;-68
2023/01/04 08:17:40;;;;;;;22.23;7.60;;;9.40;99.90;;;;;;5052184;28;20030;-70
2023/01/04 08:20:06;;;;;;;10.02;5.75;;;9.40;99.90;;;;;;5053513;28;20516;-69
2023/01/04 08:22:31;;;;;;;7.82;4.75;;;9.40;99.90;;;;;;5061043;28;20045;-69
2023/01/04 08:24:57;;;;;;;10.35;4.82;;;9.40;99.90;;;;;;5056510;28;20056;-70
2023/01/04 08:27:23;;;;;;;9.07;5.53;;;9.50;99.90;;;;;;5052541;28;20051;-68
2023/01/04 08:29:49;;;;;;;8.93;4.72;;;9.50;99.90;;;;;;5053663;28;20021;-68
2023/01/04 08:32:14;;;;;;;10.90;4.70;;;9.50;99.90;;;;;;5051995;28;20108;-69
2023/01/04 08:34:40;;;;;;;9.07;5.68;;;9.50;99.90;;;;;;5051518;28;20044;-69
2023/01/04 08:37:05;;;;;;;9.77;5.00;;;9.50;99.90;;;;;;5053324;28;20037;-71
2023/01/04 08:39:34;;;;;;;8.07;4.75;;;9.50;99.90;;;;;;5041894;28;20055;-69
2023/01/04 08:42:00;;;;;;;6.22;3.22;;;9.60;99.90;;;;;;5053149;28;20032;-68
2023/01/04 08:44:26;;;;;;;6.82;4.15;;;9.60;99.90;;;;;;5058389;28;20067;-70
2023/01/04 08:46:53;;;;;;;8.98;4.60;;;9.60;99.90;;;;;;5052696;28;20055;-69
2023/01/04 08:49:19;;;;;;;8.43;4.93;;;9.60;99.90;;;;;;5058128;28;20052;-73
2023/01/04 08:51:45;;;;;;;10.52;5.10;;;9.70;99.90;;;;;;5043423;28;20051;-68
2023/01/04 08:54:12;;;;;;;6.70;3.85;;;9.70;99.90;;;;;;5059958;28;20029;-70
2023/01/04 08:56:37;;;;;;;8.00;4.63;;;9.70;99.90;;;;;;5051013;28;20460;-70
2023/01/04 08:59:03;;;;;;;8.07;4.88;;;9.70;99.90;;;;;;5052492;28;20029;-70
2023/01/04 09:01:31;;;;;;;7.97;4.18;;;9.70;99.90;;;;;;5051656;28;20032;-69
2023/01/04 09:03:56;;;;;;;7.25;4.57;;;9.80;99.90;;;;;;5051873;28;20035;-69
2023/01/04 09:06:22;;;;;;;10.75;5.03;;;9.80;99.90;;;;;;5059040;28;20025;-69
2023/01/04 09:08:48;;;;;;;7.55;4.15;;;9.80;99.90;;;;;;5050879;28;20037;-71
2023/01/04 09:11:17;;;;;;;6.47;3.72;;;9.80;99.90;;;;;;5052964;28;20017;-70
2023/01/04 09:13:43;;;;;;;9.77;5.15;;;9.80;99.90;;;;;;5052557;28;20021;-69
2023/01/04 09:16:11;;;;;;;6.50;3.33;;;9.90;99.90;;;;;;5050879;28;20040;-69
2023/01/04 09:18:37;;;;;;;8.45;5.10;;;9.90;99.90;;;;;;5038030;28;20122;-70
2023/01/04 09:21:09;;;;;;;10.57;4.88;;;9.90;99.90;;;;;;5056201;28;20036;-68
2023/01/04 09:23:38;;;;;;;7.80;5.00;;;9.90;99.90;;;;;;5052707;28;20079;-67
2023/01/04 09:26:09;;;;;;;7.05;4.60;;;9.90;99.90;;;;;;5051262;28;20033;-68
2023/01/04 09:28:35;;;;;;;6.45;3.47;;;9.90;99.90;;;;;;5053236;28;20025;-67
2023/01/04 09:31:13;;;;;;;9.68;4.82;;;9.90;99.90;;;;;;5051846;28;20033;-67
2023/01/04 09:33:39;;;;;;;10.57;5.88;;;9.90;99.90;;;;;;5055711;28;20029;-67
2023/01/04 09:36:06;;;;;;;7.45;3.88;;;9.90;99.90;;;;;;5056054;28;20151;-70
2023/01/04 09:38:33;;;;;;;18.90;4.97;;;9.90;99.90;;;;;;5052038;28;20024;-70
2023/01/04 09:41:12;;;;;;;8.43;4.95;;;9.90;99.90;;;;;;5050641;28;20025;-69
2023/01/04 09:43:54;;;;;;;7.30;4.40;;;9.90;99.90;;;;;;5051396;28;20044;-69
2023/01/04 09:46:39;;;;;;;6.05;3.83;;;9.90;99.90;;;;;;5050570;28;20036;-69
2023/01/04 09:49:40;;;;;;;5.55;3.58;;;9.90;99.90;;;;;;5057802;28;20032;-69
2023/01/04 09:52:15;;;;;;;5.20;3.55;;;10.00;99.90;;;;;;4995937;28;20072;-71
2023/01/04 09:54:53;;;;;;;5.57;3.38;;;10.00;99.90;;;;;;5050879;28;20639;-70
2023/01/04 09:57:36;;;;;;;5.78;3.35;;;10.00;99.90;;;;;;5053720;28;20033;-68
2023/01/04 10:00:10;;;;;;;5.20;2.83;;;10.00;99.90;;;;;;5055697;28;20694;-69
2023/01/04 10:02:43;;;;;;;6.15;3.60;;;10.00;99.90;;;;;;5054645;28;20021;-68
2023/01/04 10:05:30;;;;;;;5.82;3.63;;;10.10;99.90;;;;;;5059170;28;20040;-69
2023/01/04 10:07:56;;;;;;;5.20;3.90;;;10.10;99.90;;;;;;5052474;28;20032;-68
2023/01/04 10:10:48;;;;;;;9.25;3.97;;;10.10;99.90;;;;;;5048255;28;20081;-71
2023/01/04 10:13:28;;;;;;;6.07;3.83;;;10.10;99.90;;;;;;5046596;28;20089;-70
2023/01/04 10:16:16;;;;;;;6.28;3.63;;;10.10;99.90;;;;;;5058654;28;20037;-69
2023/01/04 10:18:58;;;;;;;5.75;3.70;;;10.10;99.90;;;;;;5051121;28;20035;-68
2023/01/04 10:21:24;;;;;;;6.47;4.15;;;10.10;99.90;;;;;;5050219;28;20390;-70
2023/01/04 10:24:13;;;;;;;5.85;3.50;;;10.10;99.90;;;;;;5053015;28;20045;-68
2023/01/04 10:26:43;;;;;;;7.28;4.18;;;10.20;99.90;;;;;;5049937;28;20029;-68
2023/01/04 10:29:12;;;;;;;8.05;4.00;;;10.20;99.90;;;;;;5052715;28;20031;-70
2023/01/04 10:31:48;;;;;;;6.22;4.28;;;10.20;99.90;;;;;;5045225;28;20041;-68
2023/01/04 10:34:37;;;;;;;5.82;3.70;;;10.20;99.90;;;;;;5046227;28;20037;-69
2023/01/04 10:37:27;;;;;;;6.85;3.63;;;10.30;99.90;;;;;;5059301;28;20059;-67
2023/01/04 10:39:56;;;;;;;7.40;4.13;;;10.30;99.90;;;;;;5048618;28;20061;-68
2023/01/04 10:42:49;;;;;;;5.32;3.75;;;10.30;99.90;;;;;;5058206;28;20040;-69
2023/01/04 10:45:21;;;;;;;6.60;3.30;;;10.30;99.90;;;;;;5056830;28;20022;-69
2023/01/04 10:48:07;;;;;;;6.93;3.63;;;10.30;99.90;;;;;;5038033;28;20028;-69
2023/01/04 10:50:35;;;;;;;5.43;3.40;;;10.40;99.90;;;;;;5040194;28;20470;-68
2023/01/04 10:53:17;;;;;;;7.78;3.60;;;10.40;99.90;;;;;;5052330;28;20116;-68
2023/01/04 10:56:02;;;;;;;7.68;3.45;;;10.40;99.90;;;;;;5051831;28;20041;-70
2023/01/04 10:59:01;;;;;;;7.38;3.58;;;10.40;99.90;;;;;;5055623;28;20030;-70
2023/01/04 11:02:04;;;;;;;6.43;3.58;;;10.40;99.90;;;;;;5049547;28;20052;-68
2023/01/04 11:04:37;;;;;;;3.83;2.50;;;10.40;99.90;;;;;;5056448;28;20037;-69
2023/01/04 11:07:22;;;;;;;5.03;3.03;;;10.50;99.90;;;;;;5055039;28;20033;-69
2023/01/04 11:10:09;;;;;;;4.65;3.22;;;10.50;99.90;;;;;;5062253;28;20031;-69
2023/01/04 11:12:34;;;;;;;5.28;3.00;;;10.50;99.90;;;;;;5054486;28;20083;-70
2023/01/04 11:15:00;;;;;;;4.50;3.10;;;10.50;99.90;;;;;;5052637;28;20033;-69
2023/01/04 11:17:26;;;;;;;4.15;2.83;;;10.50;99.90;;;;;;5061438;28;20029;-68
2023/01/04 11:19:52;;;;;;;7.63;2.85;;;10.60;99.90;;;;;;5060840;28;20363;-68
2023/01/04 11:22:27;;;;;;;4.68;2.95;;;10.60;99.90;;;;;;5059577;28;20064;-69
2023/01/04 11:24:59;;;;;;;7.78;3.30;;;10.60;99.90;;;;;;5052489;28;20037;-67
2023/01/04 11:27:30;;;;;;;3.17;2.28;;;10.60;99.90;;;;;;5055993;28;20027;-67
2023/01/04 11:30:02;;;;;;;7.60;3.25;;;10.60;99.90;;;;;;5057913;28;20048;-67
2023/01/04 11:32:51;;;;;;;4.15;2.85;;;10.60;99.90;;;;;;5061345;28;20433;-68
2023/01/04 11:35:40;;;;;;;3.50;2.72;;;10.60;99.90;;;;;;5049197;28;20056;-69
2023/01/04 11:38:21;;;;;;;3.67;2.60;;;10.60;99.90;;;;;;5053138;28;20685;-68
2023/01/04 11:41:04;;;;;;;5.50;2.92;;;10.70;99.90;;;;;;5054925;28;20088;-69
2023/01/04 11:43:35;;;;;;;3.85;2.50;;;10.70;99.90;;;;;;5056213;28;20025;-67
2023/01/04 11:46:06;;;;;;;7.35;4.57;;;10.60;99.90;;;;;;5055445;28;20048;-68
2023/01/04 11:48:35;;;;;;;7.82;4.97;;;10.70;99.90;;;;;;5061018;28;20032;-68
2023/01/04 11:51:01;;;;;;;13.27;7.22;;;10.70;99.90;;;;;;5044791;28;20017;-70
2023/01/04 11:53:28;;;;;;;5.35;3.58;;;10.80;99.90;;;;;;5057825;28;20028;-69
2023/01/04 11:56:21;;;;;;;5.25;3.10;;;10.80;99.90;;;;;;5052912;28;20034;-67
2023/01/04 11:59:16;;;;;;;4.00;3.10;;;10.80;99.90;;;;;;5052498;28;20060;-68
2023/01/04 12:01:46;;;;;;;4.93;3.22;;;10.80;99.90;;;;;;5052727;28;20021;-69
2023/01/04 12:04:19;;;;;;;2.60;1.90;;;10.80;99.90;;;;;;5040525;28;20045;-68
2023/01/04 12:06:48;;;;;;;4.72;3.53;;;10.80;99.90;;;;;;5059001;28;20060;-69
2023/01/04 12:09:16;;;;;;;5.30;3.60;;;10.80;99.90;;;;;;5059198;28;20018;-68
2023/01/04 12:11:54;;;;;;;8.88;5.47;;;10.80;99.90;;;;;;5057839;28;20036;-67
2023/01/04 12:14:34;;;;;;;4.70;2.40;;;10.80;99.90;;;;;;5060999;28;20025;-68
2023/01/04 12:17:28;;;;;;;4.10;2.50;;;10.80;99.90;;;;;;5051314;28;20034;-68
2023/01/04 12:19:56;;;;;;;2.33;1.67;;;10.80;99.90;;;;;;5060863;28;20444;-69
2023/01/04 12:22:37;;;;;;;4.38;2.10;;;10.90;99.90;;;;;;5060450;28;20056;-68
2023/01/04 12:25:24;;;;;;;3.83;2.67;;;10.90;99.90;;;;;;5043464;28;20094;-69
2023/01/04 12:27:50;;;;;;;6.18;2.65;;;10.90;99.90;;;;;;5037747;28;20029;-70
2023/01/04 12:30:44;;;;;;;4.43;2.55;;;10.90;99.90;;;;;;5050563;28;20025;-69
2023/01/04 12:33:36;;;;;;;3.35;1.63;;;10.90;99.90;;;;;;5055445;28;20453;-69
2023/01/04 12:36:06;;;;;;;9.57;2.42;;;10.90;99.90;;;;;;5059334;28;20043;-70
2023/01/04 12:38:51;;;;;;;6.07;3.08;;;10.90;99.90;;;;;;5056320;28;20056;-68
2023/01/04 12:41:32;;;;;;;5.82;2.78;;;11.00;99.90;;;;;;5039306;28;20083;-70
2023/01/04 12:43:57;;;;;;;7.93;3.30;;;11.00;99.90;;;;;;5057735;28;20043;-69
2023/01/04 12:49:32;;;;;;;7.07;3.45;;;10.90;99.90;;;;;;5053426;28;20063;-68
2023/01/04 12:52:07;;;;;;;;;;;11.00;99.90;;;;;;5052917;28;20021;-71
2023/01/04 12:54:56;;;;;;;7.45;3.42;;;10.90;99.90;;;;;;5051383;28;19908;-70
2023/01/04 12:57:38;;;;;;;11.38;3.13;;;11.00;99.90;;;;;;5052271;28;20048;-69
2023/01/04 13:00:12;;;;;;;8.38;3.47;;;11.00;99.90;;;;;;5060363;28;20049;-67
2023/01/04 13:02:43;;;;;;;10.15;3.20;;;11.00;99.90;;;;;;5053461;28;20108;-69
2023/01/04 13:05:18;;;;;;;4.97;3.00;;;11.00;99.90;;;;;;5060585;28;20037;-69
2023/01/04 13:07:51;;;;;;;8.50;2.92;;;11.00;99.90;;;;;;5049888;28;20072;-69
2023/01/04 13:10:37;;;;;;;9.85;5.18;;;11.00;99.90;;;;;;5060779;28;20020;-69
2023/01/04 13:13:24;;;;;;;4.93;2.45;;;11.00;99.90;;;;;;5051190;28;20047;-69
2023/01/04 13:16:35;;;;;;;4.65;2.60;;;11.10;99.90;;;;;;5051123;28;20036;-69
2023/01/04 13:19:03;;;;;;;4.35;2.45;;;11.10;99.90;;;;;;5051878;28;20028;-70
2023/01/04 13:21:32;;;;;;;3.72;1.88;;;11.10;99.90;;;;;;5052322;28;20096;-69
2023/01/04 13:24:05;;;;;;;3.97;2.25;;;11.10;99.90;;;;;;5051283;28;20017;-70
2023/01/04 13:26:31;;;;;;;4.95;2.45;;;11.10;99.90;;;;;;5050391;28;20017;-69
2023/01/04 13:29:21;;;;;;;4.30;2.70;;;11.10;99.90;;;;;;5055548;28;20035;-67
2023/01/04 13:31:51;;;;;;;6.90;3.10;;;11.10;99.90;;;;;;5053099;28;20024;-70
2023/01/04 13:34:33;;;;;;;7.07;3.53;;;11.10;99.90;;;;;;5052838;28;20028;-68
2023/01/04 13:37:01;;;;;;;5.10;2.90;;;11.10;99.90;;;;;;5051229;28;20038;-69
2023/01/04 13:39:27;;;;;;;5.32;2.97;;;11.10;99.90;;;;;;5053167;28;20079;-69
2023/01/04 13:41:54;;;;;;;9.55;2.95;;;11.10;99.90;;;;;;5056356;28;20029;-70
2023/01/04 13:44:48;;;;;;;6.30;3.10;;;11.10;99.90;;;;;;5050775;28;20086;-69
2023/01/04 13:47:14;;;;;;;23.83;8.13;;;11.10;99.90;;;;;;5037534;28;20792;-71
2023/01/04 13:49:40;;;;;;;7.85;2.90;;;11.20;99.90;;;;;;5052116;28;20021;-70
2023/01/04 13:52:22;;;;;;;9.00;3.17;;;11.10;99.90;;;;;;5052216;28;20027;-69
2023/01/04 13:54:48;;;;;;;8.77;3.38;;;11.20;99.90;;;;;;5051402;28;20096;-70
2023/01/04 13:57:19;;;;;;;13.70;3.78;;;11.20;99.90;;;;;;5049579;28;20071;-71
2023/01/04 13:59:48;;;;;;;10.38;3.63;;;11.20;99.90;;;;;;5054223;28;20075;-71
2023/01/04 14:02:20;;;;;;;11.15;3.92;;;11.20;99.90;;;;;;5038932;28;20029;-68
2023/01/04 14:04:48;;;;;;;12.63;4.70;;;11.20;99.90;;;;;;5058925;28;20033;-69